METAR AND TAF INFORMATION
METAR FOR ULAA
ADDS - METARS form results

(1713 UTC 29 September 2020)
Data provider http://aviationweather.gov/metar/data/
 
METAR text: ULAA 291700Z VRB01MPS 9999 SCT026 10/06 Q1025 R08/CLRD68 NOSIG RMK QFE768/1024
Conditions at: ULAA (ARHANGELSK , RU) observed 1700 UTC 29 September 2020
Temperature: 10.0°C (50°F)
Dewpoint: 6.0°C (43°F) [RH = 76%]
Pressure (altimeter): 30.27 inches Hg (1025.0 mb)
Winds: variable direction winds at 2 MPH (2 knots; 1.0 m/s)
Visibility: 6 or more miles (10+ km)
Ceiling: at least 12,000 feet AGL
Clouds: scattered clouds at 2600 feet AGL
Weather: no significant weather observed at this time

METAR text: ULAA 291630Z 17003MPS 9999 FEW030 11/06 Q1025 R08/CLRD68 NOSIG RMK QFE768/1024
Conditions at: ULAA (ARHANGELSK , RU) observed 1630 UTC 29 September 2020
Temperature: 11.0°C (52°F)
Dewpoint: 6.0°C (43°F) [RH = 71%]
Pressure (altimeter): 30.27 inches Hg (1025.0 mb)
Winds: from the S (170 degrees) at 7 MPH (6 knots; 3.1 m/s)
Visibility: 6 or more miles (10+ km)
Ceiling: at least 12,000 feet AGL
Clouds: few clouds at 3000 feet AGL
Weather: no significant weather observed at this time

Forecast for: ULAA (ARHANGELSK , RU)
Text: TAF ULAA 291400Z 2915/3015 17003MPS 6000 BKN020
Forecast period: 1500 UTC 29 September 2020 to 0000 UTC 30 September 2020
Forecast type: FROM: standard forecast or significant change
Winds: from the S (170 degrees) at 7 MPH (6 knots; 3.1 m/s)
Visibility: 4 miles (6 km)
Ceiling: 2000 feet AGL
Clouds: broken clouds at 2000 feet AGL
Weather: no significant weather forecast for this period
Text: FM300000 16003MPS 9999 BKN017
Forecast period: 0000 to 1500 UTC 30 September 2020
Forecast type: FROM: standard forecast or significant change
Winds: from the SSE (160 degrees) at 7 MPH (6 knots; 3.1 m/s)
Visibility: 6 or more miles (10+ km)
Ceiling: 1700 feet AGL
Clouds: broken clouds at 1700 feet AGL
Weather: no significant weather forecast for this period
Text: TEMPO 3003/3015 6000 -SHRA FEW011 BKN016CB
Forecast period: 0300 to 1500 UTC 30 September 2020
Forecast type: TEMPORARY: The following changes expected for less than half the time period
Visibility: 4 miles (6 km)
Ceiling: 1600 feet AGL
Clouds: few clouds at 1100 feet AGL
broken clouds at 1600 feet AGL
Weather: -SHRA  (light rain showers)

 AIRPORT MAP

 RUNWAY INFORMATION
Runway 08 Runway length 8202 ft Runway width 144 ft
Runway elevation 33 ft Runway displaced threshold 0 ft Runway heading 97
Runway 26 Runway length 8202 ft Runway width 144 ft
Runway elevation 49 ft Runway displaced threshold 0 ft Runway heading 277

 AIRPORT FREQUENCIES
Type APP Name ARKHANGELS Frequency 122 MHZ
Type ATIS Name ARKHANGELS Frequency 126.675 MHZ
Type TWR Name ARKHANGELS Frequency 121.8 MHZ

 AIRPORT NEAR NAVIGATION AIDS
Type NDB Name Arkhangelsk Frequency 690 KHZ
Type NDB Name Arkhangelsk Frequency 690 KHZ



Powered by Virtual Airlines Manager [v2.6.2]